SBKP/CPQ METAR and TAF weather

Enter ICAO airport designator
Station Type Date Time Source
SBKP METAR 2020/10/22 04:00 UTC NOAA

SBKP 220400Z 14011KT CAVOK 20/16 Q1020


Station Type Date Time Source
SBKP Decoded METAR 2020/10/22 04:00 UTC NOAA

Campinas Aeroporto , Brazil (SBKP) 23-00S 047-08W 661M
Oct 22, 2020 - 12:00 AM EDT / 2020.10.22 0400 UTC
Wind: from the SE (140 degrees) at 13 MPH (11 KT):0
Visibility: greater than 7 mile(s):0
Temperature: 68 F (20 C)
Dew Point: 60 F (16 C)
Relative Humidity: 77%
Pressure (altimeter): 30.12 in. Hg (1020 hPa)
ob: SBKP 220400Z 14011KT CAVOK 20/16 Q1020
cycle: 4

Station Type Date Time Source
SBKP TAF 2020/10/22 06:09 UTC NOAA

TAF SBKP 220130Z 2206/2306 12009KT CAVOK TN17/2209Z TX30/2218Z PROB30 2209/2211 5000 BR NSC
BECMG 2211/2213 SCT030
BECMG 2214/2216 SCT045 PROB30 2218/2220 15015KT FEW040 FEW045TCU
BECMG 2220/2222 13020KT CAVOK
BECMG 2223/2301 13013KT
RMK PGE

Example: see airport list